首页
METAR-TAF:

METAR-TAF

机场 :

法兰克福机场

法兰克福, 德国

纬度: 50-03N, 经度: 008-36E, 海拔: 111米

当前天气观测

该预报发布于24分钟前的03:20 UTC
风速6节,风向东转东南
温度 5°C
湿度 87%
气压 1003 hPa
能见度10公里或以上
少量云层高于1600英尺
散云层高于2000英尺
多云层高于3000英尺

METAR: EDDF 140320Z 11006KT 9999 FEW016 SCT020 BKN030 05/03 Q1003 NOSIG

时间: 04:44 (03:44 UTC)

预报

该预报发布于4小时和44分钟前的23:00 UTC
预报有效从14日的 00点(UTC)到 15日的 06点(UTC)
风速5节,风向南转南东
能见度10公里或以上
多云层高于2000英尺
成为
从 14日的 00点(UTC)到 14日的 03点(UTC)
风速5节,风向
散云层高于2500英尺
几率 30% :
短暂存在
从 14日的 03点(UTC)到 14日的 07点(UTC)
能見度: 4000
轻雾
成为
从 14日的 17点(UTC)到 14日的 19点(UTC)
风速8节,风向东北

TAF: EDDF 132300Z 1400/1506 16005KT 9999 BKN020 BECMG 1400/1403 10005KT SCT025 PROB30 TEMPO 1403/1407 4000 BR BECMG 1417/1419 04008KT

超过4000个机场的气象观测和天气预报(METAR&TAF报告)。

可查询的气象台以黄色和红色小点在地图上表示。

将鼠标移到小点上方,可查看气象台名称。

然后点击查看天气观测和预报。

如需切换地图:点击带黑十字的绿色按钮放大地图;点击带横线的绿色按钮缩小地图;或者点击绿色箭头查看邻近地区的地图。


METAR-TAF: